Venetia, Pennsylvania
Current Conditions -  °F | °C
As of 8:53 PM on Monday 20 Oct 2014 (Local Time) from KAGC Reporting Station
Overcast Overcast  
Wind Chill: 12°   Ceiling: 5500
Heat Index: 12°   Visibility: 10mi
Dew Point:   Wind: 8mph
Humidity: 59%   Direction: 190°S
Pressure: 29.88"   Gusts: NA
Location:  40.25°N, 80.03°W
Report Text: KAGC 210053Z 19007KT 10SM BKN055 OVC090 12/04 A2988 RMK AO2 SLP127 T01170039
Loading
Personal Weather Stations






























Interactive Weather Map
Tropical Storm Tracking
New forecast layout! Learn more

10-Day Weather Forecast

Advertisements
Track Severe Weather on mobile